Time;durP1;ratioP1;P1;durP2;ratioP2;P2;SDS_P1;SDS_P2;PMS_P1;PMS_P2;Temp;Humidity;BMP_temperature;BMP_pressure;BME280_temperature;BME280_humidity;BME280_pressure;Samples;Min_cycle;Max_cycle;Signal;HPM_P1;HPM_P2
2022/07/02 00:02:06;;;;;;;0.65;0.65;;;15.60;88.20;;;15.51;72.14;95595.63;5046432;28;20680;-80
2022/07/02 00:04:36;;;;;;;0.60;0.60;;;15.60;88.20;;;15.53;71.98;95611.28;5036445;28;20226;-79
2022/07/02 00:07:04;;;;;;;0.50;0.50;;;15.50;88.00;;;15.49;72.17;95610.06;5036530;28;20188;-79
2022/07/02 00:09:32;;;;;;;0.60;0.60;;;15.50;87.80;;;15.46;72.06;95610.47;5037766;28;20663;-79
2022/07/02 00:11:59;;;;;;;0.60;0.60;;;15.60;87.90;;;15.46;71.85;95621.03;5052634;28;20299;-78
2022/07/02 00:14:27;;;;;;;0.40;0.40;;;15.40;87.70;;;15.43;71.56;95622.28;5036067;28;20199;-79
2022/07/02 00:16:54;;;;;;;0.52;0.52;;;15.40;87.70;;;15.39;71.85;95634.25;5036082;28;20199;-79
2022/07/02 00:19:22;;;;;;;0.60;0.60;;;15.40;87.70;;;15.34;71.58;95628.78;5029423;28;20210;-78
2022/07/02 00:21:50;;;;;;;0.50;0.50;;;15.30;87.70;;;15.33;71.46;95629.78;5034693;28;20200;-79
2022/07/02 00:24:16;;;;;;;0.60;0.60;;;15.30;87.90;;;15.32;72.04;95630.81;5035699;28;20203;-79
2022/07/02 00:26:53;;;;;;;0.40;0.40;;;15.30;88.10;;;15.28;71.92;95630.41;5054991;28;20280;-79
2022/07/02 00:29:37;;;;;;;0.60;0.60;;;15.20;88.10;;;15.26;72.52;95627.16;5068637;28;20201;-79
2022/07/02 00:32:05;;;;;;;0.40;0.40;;;15.20;88.40;;;15.29;72.86;95636.50;5055931;28;20276;-79
2022/07/02 00:34:38;;;;;;;0.40;0.40;;;15.20;88.90;;;15.35;72.94;95641.78;5055952;28;20225;-80
2022/07/02 00:37:09;;;;;;;0.50;0.50;;;15.30;89.40;;;15.43;72.79;95648.72;5069193;28;20692;-79
2022/07/02 00:39:37;;;;;;;0.70;0.70;;;15.40;89.70;;;15.49;72.76;95645.25;5071801;28;20222;-79
2022/07/02 00:42:07;;;;;;;0.50;0.50;;;15.30;89.70;;;15.57;72.85;95648.69;5067117;28;20206;-79
2022/07/02 00:44:34;;;;;;;0.60;0.60;;;15.40;90.00;;;15.63;72.64;95656.63;5034336;28;20222;-79
2022/07/02 00:47:06;;;;;;;0.50;0.50;;;15.50;90.00;;;15.69;73.24;95647.84;5051859;28;20199;-79
2022/07/02 00:49:37;;;;;;;0.55;0.55;;;15.50;90.00;;;15.74;72.91;95660.47;5051873;28;20208;-79
2022/07/02 00:52:06;;;;;;;0.50;0.50;;;15.60;90.00;;;15.76;72.79;95649.69;5035266;28;20250;-80
2022/07/02 00:54:35;;;;;;;0.60;0.60;;;15.60;90.00;;;15.85;72.88;95659.06;5034984;28;20268;-79
2022/07/02 00:57:06;;;;;;;0.43;0.43;;;15.70;90.00;;;15.89;72.61;95657.63;5052852;28;20234;-79
2022/07/02 00:59:34;;;;;;;0.50;0.50;;;15.70;90.00;;;15.94;73.13;95665.78;5034140;28;20199;-79
2022/07/02 01:02:01;;;;;;;0.60;0.60;;;15.80;90.00;;;15.99;73.00;95668.59;5044212;28;20195;-79
2022/07/02 01:04:32;;;;;;;0.57;0.57;;;15.80;90.00;;;16.02;72.93;95662.09;5055134;28;20198;-79
2022/07/02 01:07:07;;;;;;;0.52;0.52;;;15.90;90.00;;;16.09;72.45;95656.78;5049554;28;20250;-79
2022/07/02 01:12:26;;;;;;;0.60;0.60;;;16.00;89.90;;;16.11;72.56;95662.66;5037357;28;20273;-79
2022/07/02 01:14:56;;;;;;;0.60;0.60;;;16.00;89.90;;;16.13;72.39;95674.66;5035003;28;20681;-79
2022/07/02 01:17:24;;;;;;;0.55;0.55;;;16.00;89.70;;;16.16;72.54;95660.19;5065233;28;20204;-79
2022/07/02 01:19:52;;;;;;;0.50;0.50;;;16.00;89.70;;;16.17;72.45;95661.84;5051506;28;20227;-79
2022/07/02 01:22:24;;;;;;;0.50;0.50;;;16.00;89.80;;;16.18;72.37;95655.53;5067851;28;20193;-79
2022/07/02 01:24:54;;;;;;;0.55;0.55;;;16.00;89.70;;;16.16;72.63;95658.38;5052412;28;20595;-79
2022/07/02 01:27:23;;;;;;;0.50;0.50;;;16.00;89.60;;;16.18;72.48;95666.09;5051374;28;20584;-79
2022/07/02 01:29:51;;;;;;;0.50;0.50;;;16.10;89.60;;;16.17;72.44;95670.59;5034624;28;20716;-78
2022/07/02 01:32:19;;;;;;;0.50;0.50;;;16.10;89.40;;;16.16;72.30;95665.50;5068803;28;20249;-79
2022/07/02 01:35:01;;;;;;;0.50;0.50;;;16.10;89.30;;;16.17;72.68;95661.84;5061512;28;20264;-79
2022/07/02 01:37:28;;;;;;;0.50;0.50;;;16.20;89.40;;;16.15;72.25;95655.94;5071593;28;20257;-79
2022/07/02 01:39:55;;;;;;;0.50;0.50;;;16.10;89.30;;;16.11;72.18;95652.09;5042627;28;20215;-79
2022/07/02 01:42:22;;;;;;;0.50;0.50;;;16.10;89.10;;;16.10;72.62;95663.69;5034672;28;20272;-79
2022/07/02 01:44:51;;;;;;;0.50;0.50;;;16.10;89.00;;;16.08;72.30;95668.38;5066188;28;20215;-79
2022/07/02 01:47:19;;;;;;;0.50;0.50;;;16.00;88.90;;;16.01;72.16;95660.44;5034548;28;20320;-79
2022/07/02 01:49:46;;;;;;;0.50;0.50;;;16.10;88.60;;;15.98;72.11;95653.75;5055979;28;20283;-78
2022/07/02 01:52:15;;;;;;;0.57;0.57;;;16.00;88.50;;;15.92;71.93;95654.56;5054503;28;20279;-79
2022/07/02 01:54:43;;;;;;;0.50;0.50;;;15.90;88.20;;;15.86;71.36;95652.75;5049464;28;20215;-79
2022/07/02 01:57:13;;;;;;;0.60;0.60;;;15.80;87.60;;;15.77;71.00;95659.25;5064692;28;20226;-79
2022/07/02 01:59:40;;;;;;;0.57;0.57;;;15.80;87.40;;;15.68;71.40;95661.28;5069213;28;20214;-79
2022/07/02 02:02:07;;;;;;;0.50;0.50;;;15.70;87.40;;;15.60;71.38;95667.63;5035846;28;20248;-80
2022/07/02 02:04:35;;;;;;;0.50;0.50;;;15.70;87.50;;;15.56;71.66;95668.22;5051318;28;20226;-78
2022/07/02 02:07:03;;;;;;;0.40;0.40;;;15.50;87.70;;;15.50;71.81;95667.19;5050921;28;20252;-79
2022/07/02 02:09:32;;;;;;;0.70;0.70;;;15.50;87.90;;;15.47;72.10;95670.25;5047154;28;20214;-79
2022/07/02 02:11:59;;;;;;;0.50;0.50;;;15.40;88.10;;;15.43;71.87;95664.56;5070751;28;20226;-79
2022/07/02 02:14:27;;;;;;;0.57;0.57;;;15.40;88.20;;;15.37;71.45;95668.03;5050080;28;20210;-79
2022/07/02 02:16:54;;;;;;;0.50;0.50;;;15.30;87.80;;;15.31;71.31;95669.66;5037897;28;20260;-79
2022/07/02 02:19:21;;;;;;;0.50;0.50;;;15.30;87.60;;;15.26;71.15;95664.16;5054173;28;20631;-79
2022/07/02 02:21:48;;;;;;;0.60;0.60;;;15.20;87.50;;;15.20;71.26;95654.41;5034661;28;20282;-79
2022/07/02 02:24:15;;;;;;;0.60;0.60;;;15.10;87.50;;;15.09;71.12;95647.06;5051539;28;20207;-78
2022/07/02 02:26:42;;;;;;;0.60;0.60;;;15.10;87.50;;;15.07;71.28;95657.03;5035662;28;20194;-80
2022/07/02 02:29:09;;;;;;;0.80;0.80;;;15.00;87.40;;;14.94;71.10;95648.06;5063799;28;20278;-79
2022/07/02 02:31:36;;;;;;;0.60;0.60;;;14.90;87.40;;;14.95;71.16;95656.81;5077660;28;20690;-79
2022/07/02 02:34:04;;;;;;;0.60;0.60;;;14.90;87.40;;;14.89;71.03;95655.75;5048689;28;20296;-79
2022/07/02 02:36:31;;;;;;;0.50;0.50;;;14.90;87.50;;;14.87;71.02;95665.72;5047962;28;20215;-78
2022/07/02 02:38:59;;;;;;;0.60;0.60;;;14.80;87.50;;;14.80;71.05;95660.41;5052021;28;20238;-79
2022/07/02 02:41:27;;;;;;;0.60;0.60;;;14.80;87.50;;;14.74;70.97;95663.88;5047550;28;20242;-78
2022/07/02 02:43:54;;;;;;;0.60;0.60;;;14.70;87.40;;;14.68;71.02;95662.84;5046797;28;20218;-79
2022/07/02 02:46:21;;;;;;;0.70;0.70;;;14.60;87.40;;;14.64;70.85;95666.84;5033260;28;20713;-79
2022/07/02 02:48:49;;;;;;;0.60;0.60;;;14.60;87.30;;;14.61;70.81;95664.63;5070448;28;20195;-79
2022/07/02 02:51:15;;;;;;;0.50;0.50;;;14.50;87.30;;;14.54;70.93;95669.06;5054465;28;20238;-79
2022/07/02 02:53:43;;;;;;;0.60;0.60;;;14.40;87.30;;;14.50;70.75;95665.19;5055468;28;20202;-79
2022/07/02 02:56:12;;;;;;;0.60;0.60;;;14.40;87.30;;;14.45;71.18;95663.13;5038959;28;20221;-79
2022/07/02 02:58:39;;;;;;;0.50;0.50;;;14.30;87.20;;;14.40;71.18;95666.38;5056152;28;20312;-79
2022/07/02 03:01:07;;;;;;;0.60;0.60;;;14.30;87.30;;;14.32;70.95;95657.78;5074048;28;20215;-79
2022/07/02 03:03:34;;;;;;;0.60;0.60;;;14.30;87.40;;;14.27;71.05;95661.03;5074155;28;20207;-79
2022/07/02 03:06:01;;;;;;;0.60;0.60;;;14.20;87.40;;;14.23;71.23;95668.53;5073783;28;20298;-79
2022/07/02 03:08:28;;;;;;;0.60;0.60;;;14.20;87.50;;;14.20;71.38;95670.75;5071121;28;20198;-79
2022/07/02 03:10:55;;;;;;;0.70;0.70;;;14.10;87.40;;;14.15;71.24;95673.16;5073209;28;20234;-79
2022/07/02 03:13:22;;;;;;;0.60;0.60;;;14.10;87.50;;;14.12;71.17;95671.69;5040039;28;20237;-79
2022/07/02 03:15:50;;;;;;;0.55;0.55;;;14.00;87.50;;;14.09;71.40;95675.53;5073865;28;20238;-79
2022/07/02 03:18:17;;;;;;;0.60;0.60;;;14.00;87.50;;;14.08;71.22;95684.47;5056448;28;20195;-79
2022/07/02 03:20:46;;;;;;;0.60;0.60;;;14.00;87.60;;;14.03;71.12;95681.59;5057119;28;20222;-79
2022/07/02 03:23:13;;;;;;;0.57;0.57;;;13.90;87.60;;;14.01;71.42;95688.91;5057188;28;20205;-78
2022/07/02 03:25:40;;;;;;;0.60;0.60;;;13.90;87.60;;;13.98;71.26;95693.75;5057064;28;20301;-79
2022/07/02 03:28:07;;;;;;;0.60;0.60;;;13.90;87.70;;;13.95;71.40;95692.31;5054751;28;20296;-79
2022/07/02 03:30:34;;;;;;;0.60;0.60;;;13.90;87.70;;;13.95;71.50;95699.41;5072813;28;20636;-78
2022/07/02 03:33:01;;;;;;;0.60;0.60;;;13.90;87.80;;;13.91;71.50;95699.81;5073460;28;20238;-79
2022/07/02 03:35:29;;;;;;;0.60;0.60;;;13.80;87.90;;;13.90;71.54;95702.63;5072486;28;20226;-78
2022/07/02 03:37:56;;;;;;;0.60;0.60;;;13.80;88.00;;;13.89;71.59;95706.25;5056772;28;20205;-79
2022/07/02 03:40:23;;;;;;;0.68;0.68;;;13.80;88.00;;;13.88;71.77;95705.47;5040279;28;20316;-78
2022/07/02 03:42:50;;;;;;;0.70;0.70;;;13.80;88.20;;;13.88;71.80;95710.75;5056839;28;20195;-79
2022/07/02 03:45:17;;;;;;;0.50;0.50;;;13.80;88.20;;;13.89;71.76;95712.38;5056650;28;20218;-80
2022/07/02 03:47:45;;;;;;;0.57;0.57;;;13.80;88.20;;;13.86;71.71;95710.09;5051800;28;20294;-79
2022/07/02 03:50:12;;;;;;;0.50;0.50;;;13.80;88.20;;;13.90;71.46;95716.63;5036454;28;20241;-79
2022/07/02 03:52:39;;;;;;;0.60;0.60;;;13.70;88.20;;;13.89;71.58;95703.63;5053271;28;20223;-79
2022/07/02 03:55:08;;;;;;;0.60;0.60;;;13.70;88.20;;;13.90;71.59;95697.34;5045906;28;20601;-79
2022/07/02 03:57:36;;;;;;;0.50;0.50;;;13.80;88.30;;;13.90;71.43;95705.25;5054188;28;20252;-78
2022/07/02 04:00:05;;;;;;;0.60;0.60;;;13.70;88.20;;;13.88;71.61;95707.28;5056296;28;20222;-79
2022/07/02 04:02:39;;;;;;;0.50;0.50;;;13.70;88.30;;;13.86;71.78;95712.75;5052190;28;20209;-80
2022/07/02 04:05:07;;;;;;;0.55;0.55;;;13.80;88.40;;;13.86;71.86;95706.66;5052924;28;20215;-80
2022/07/02 04:07:35;;;;;;;0.50;0.50;;;13.70;88.40;;;13.88;72.00;95712.56;5063931;28;20203;-80
2022/07/02 04:10:03;;;;;;;0.60;0.60;;;13.70;88.60;;;13.87;72.12;95706.47;5072918;28;20215;-80
2022/07/02 04:12:30;;;;;;;0.60;0.60;;;13.70;88.90;;;13.90;72.16;95713.16;5056281;28;20309;-80
2022/07/02 04:14:58;;;;;;;0.60;0.60;;;13.80;89.20;;;13.91;72.37;95715.63;5072534;28;20215;-80
2022/07/02 04:17:25;;;;;;;0.60;0.60;;;13.80;89.20;;;13.93;72.38;95718.88;5053082;28;20199;-79
2022/07/02 04:19:54;;;;;;;0.60;0.60;;;13.80;89.30;;;13.95;72.57;95715.25;5072481;28;20218;-80
2022/07/02 04:22:22;;;;;;;0.50;0.50;;;13.80;89.40;;;13.98;72.13;95720.13;5039586;28;20566;-80
2022/07/02 04:24:49;;;;;;;0.60;0.60;;;13.90;89.60;;;14.03;72.81;95718.53;5055866;28;20219;-79
2022/07/02 04:27:17;;;;;;;0.50;0.50;;;13.90;89.80;;;14.09;72.92;95732.78;5037937;28;20301;-80
2022/07/02 04:29:45;;;;;;;0.60;0.60;;;14.00;89.80;;;14.10;73.07;95731.78;5053720;28;20241;-79
2022/07/02 04:32:12;;;;;;;0.60;0.60;;;14.00;89.90;;;14.13;72.84;95736.66;5052265;28;20234;-80
2022/07/02 04:34:39;;;;;;;0.55;0.55;;;14.00;90.00;;;14.17;72.79;95737.09;5035703;28;20381;-79
2022/07/02 04:37:07;;;;;;;0.55;0.55;;;14.10;90.00;;;14.22;73.23;95732.03;5048183;28;20224;-80
2022/07/02 04:39:34;;;;;;;0.40;0.40;;;14.10;90.00;;;14.25;73.13;95736.94;5055614;28;20209;-79
2022/07/02 04:42:02;;;;;;;0.50;0.50;;;14.20;90.00;;;14.30;73.11;95739.00;5055507;28;20606;-79
2022/07/02 04:44:30;;;;;;;0.60;0.60;;;14.20;90.10;;;14.32;73.12;95740.44;5070568;28;20217;-80
2022/07/02 04:46:57;;;;;;;0.50;0.50;;;14.30;90.00;;;14.34;73.01;95737.59;5071973;28;20194;-79
2022/07/02 04:49:24;;;;;;;0.80;0.80;;;14.30;90.10;;;14.36;73.35;95740.84;5067826;28;20252;-79
2022/07/02 04:51:51;;;;;;;0.55;0.55;;;14.30;90.10;;;14.43;73.54;95748.78;5070980;28;20231;-80
2022/07/02 04:54:18;;;;;;;0.60;0.60;;;14.40;90.10;;;14.48;73.55;95749.84;5070815;28;20227;-80
2022/07/02 04:56:46;;;;;;;0.60;0.60;;;14.40;90.10;;;14.52;73.46;95751.06;5071834;28;20248;-80
2022/07/02 04:59:13;;;;;;;0.60;0.60;;;14.40;90.10;;;14.50;73.56;95747.00;5069978;28;20679;-80
2022/07/02 05:01:40;;;;;;;0.70;0.70;;;14.50;90.10;;;14.61;73.83;95743.00;5038707;28;20226;-81
2022/07/02 05:04:07;;;;;;;0.50;0.50;;;14.60;90.20;;;14.67;73.46;95755.44;5024747;28;20199;-80
2022/07/02 05:06:34;;;;;;;0.80;0.80;;;14.60;90.20;;;14.71;73.56;95751.41;5047789;28;20831;-80
2022/07/02 05:09:03;;;;;;;0.50;0.50;;;14.70;90.30;;;14.80;74.12;95755.50;5054735;28;20202;-80
2022/07/02 05:11:31;;;;;;;0.70;0.70;;;14.70;90.30;;;14.86;73.91;95761.81;5053394;28;20226;-81
2022/07/02 05:13:58;;;;;;;0.60;0.60;;;14.80;90.40;;;14.91;73.87;95761.25;5055132;28;20198;-80
2022/07/02 05:16:25;;;;;;;0.50;0.50;;;14.80;90.40;;;14.96;73.68;95767.53;5071667;28;20699;-80
2022/07/02 05:18:52;;;;;;;0.60;0.60;;;14.90;90.40;;;15.00;73.87;95774.06;5071506;28;20193;-80
2022/07/02 05:21:19;;;;;;;0.77;0.77;;;14.90;90.40;;;15.04;73.81;95769.22;5050785;28;20700;-79
2022/07/02 05:23:46;;;;;;;0.50;0.50;;;15.00;90.50;;;15.12;74.11;95774.28;5045622;28;20655;-80
2022/07/02 05:26:13;;;;;;;0.50;0.50;;;15.00;90.50;;;15.19;74.14;95780.41;5022915;28;20226;-80
2022/07/02 05:28:40;;;;;;;0.50;0.50;;;15.10;90.60;;;15.27;74.65;95779.44;5054734;28;20203;-80
2022/07/02 05:31:09;;;;;;;0.50;0.50;;;15.10;90.60;;;15.33;74.46;95786.56;5054132;28;20724;-80
2022/07/02 05:33:36;;;;;;;0.50;0.50;;;15.20;90.70;;;15.39;74.45;95784.94;5056578;28;20218;-80
2022/07/02 05:36:04;;;;;;;0.60;0.60;;;15.30;90.70;;;15.44;74.09;95787.81;5051195;28;20422;-80
2022/07/02 05:38:31;;;;;;;0.60;0.60;;;15.40;90.70;;;15.50;74.09;95796.75;5024497;28;20732;-79
2022/07/02 05:40:58;;;;;;;0.50;0.50;;;15.40;90.60;;;15.51;74.31;95788.63;5037503;28;20234;-80
2022/07/02 05:43:25;;;;;;;0.50;0.50;;;15.50;90.60;;;15.57;74.34;95794.94;5032457;28;20624;-79
2022/07/02 05:45:52;;;;;;;0.50;0.50;;;15.60;90.60;;;15.63;74.26;95785.38;5032886;28;20230;-79
2022/07/02 05:48:19;;;;;;;0.65;0.65;;;15.60;90.60;;;15.65;74.34;95794.75;5066519;28;20198;-79
2022/07/02 05:50:46;;;;;;;0.45;0.45;;;15.60;90.60;;;15.72;74.39;95781.53;5034169;28;20869;-79
2022/07/02 05:53:13;;;;;;;0.60;0.60;;;15.70;90.60;;;15.68;74.44;95772.38;5033791;28;20244;-79
2022/07/02 05:55:41;;;;;;;0.50;0.50;;;15.70;90.60;;;15.80;74.17;95796.41;5066850;28;20552;-78
2022/07/02 05:58:08;;;;;;;0.50;0.50;;;15.80;90.50;;;15.83;74.52;95798.66;5050781;28;20225;-79
2022/07/02 06:00:35;;;;;;;0.60;0.60;;;15.80;90.50;;;15.87;74.17;95797.25;5054643;28;20226;-78
2022/07/02 06:03:03;;;;;;;0.70;0.70;;;15.90;90.60;;;15.91;74.52;95792.38;5051130;28;20676;-80
2022/07/02 06:08:16;;;;;;;0.50;0.50;;;16.00;90.70;;;16.02;74.51;95804.97;5031700;28;20212;-78
2022/07/02 06:10:43;;;;;;;0.50;0.50;;;16.10;90.80;;;16.07;74.73;95807.00;5056804;28;20715;-78
2022/07/02 06:13:10;;;;;;;0.57;0.57;;;16.10;90.80;;;16.16;74.95;95803.13;5038025;28;20324;-78
2022/07/02 06:15:37;;;;;;;0.57;0.57;;;16.20;90.90;;;16.25;75.49;95811.69;5031530;28;20215;-79
2022/07/02 06:18:05;;;;;;;0.40;0.40;;;16.20;91.20;;;16.41;75.84;95818.38;5043737;28;20203;-78
2022/07/02 06:20:32;;;;;;;0.60;0.60;;;16.30;91.40;;;16.53;75.79;95819.38;5020919;28;20246;-77
2022/07/02 06:22:59;;;;;;;0.40;0.40;;;16.40;91.60;;;16.71;75.99;95809.97;5019428;28;20198;-78
2022/07/02 06:25:26;;;;;;;0.50;0.50;;;16.60;91.80;;;16.86;75.95;95823.78;5053616;28;20702;-78
2022/07/02 06:27:53;;;;;;;0.50;0.50;;;16.70;91.90;;;16.98;75.93;95815.19;5035881;28;20210;-79
2022/07/02 06:30:20;;;;;;;0.57;0.57;;;16.90;91.80;;;17.08;75.68;95818.25;5051115;28;21067;-78
2022/07/02 06:32:48;;;;;;;0.50;0.50;;;16.90;91.60;;;17.16;75.59;95823.28;5083458;28;20643;-78
2022/07/02 06:35:16;;;;;;;0.50;0.50;;;17.10;91.60;;;17.21;75.69;95823.47;5058817;28;20935;-78
2022/07/02 06:37:43;;;;;;;0.50;0.50;;;17.20;91.50;;;17.26;75.23;95815.69;5019581;28;20202;-79
2022/07/02 06:40:11;;;;;;;0.50;0.50;;;17.30;91.30;;;17.33;75.09;95822.81;5022126;28;20223;-78
2022/07/02 06:42:38;;;;;;;0.50;0.50;;;17.40;91.10;;;17.31;74.69;95811.59;5034841;28;20463;-79
2022/07/02 06:45:06;;;;;;;0.60;0.60;;;17.50;91.00;;;17.38;74.38;95823.81;5037725;28;20214;-79
2022/07/02 06:47:33;;;;;;;0.55;0.55;;;17.50;90.80;;;17.39;74.24;95827.25;5019621;28;20670;-77
2022/07/02 06:50:00;;;;;;;0.50;0.50;;;17.60;90.70;;;17.36;74.39;95809.94;5052712;28;20261;-79
2022/07/02 06:52:29;;;;;;;0.50;0.50;;;17.60;90.70;;;17.38;74.14;95820.31;5050765;28;20223;-78
2022/07/02 06:54:57;;;;;;;0.50;0.50;;;17.50;90.80;;;17.45;75.21;95818.47;5019475;28;20234;-80
2022/07/02 06:57:24;;;;;;;0.50;0.50;;;17.60;91.00;;;17.52;75.18;95824.53;5034831;28;20289;-78
2022/07/02 06:59:53;;;;;;;0.50;0.50;;;17.50;91.10;;;17.53;74.85;95825.38;5048359;28;20310;-78
2022/07/02 07:02:22;;;;;;;0.50;0.50;;;17.60;91.00;;;17.61;75.12;95825.09;5052213;28;20207;-78
2022/07/02 07:04:49;;;;;;;0.50;0.50;;;17.60;91.00;;;17.61;74.98;95814.47;5054331;28;20218;-78
2022/07/02 07:07:17;;;;;;;0.50;0.50;;;17.80;91.10;;;17.67;74.87;95820.78;5038730;28;20332;-79
2022/07/02 07:09:44;;;;;;;0.50;0.50;;;17.70;91.00;;;17.74;74.56;95834.81;5058180;28;20272;-79
2022/07/02 07:12:12;;;;;;;0.50;0.50;;;17.80;91.10;;;17.82;75.01;95831.09;5054376;28;20202;-78
2022/07/02 07:14:39;;;;;;;0.52;0.52;;;17.80;91.20;;;17.88;75.36;95836.38;5049185;28;20239;-78
2022/07/02 07:17:07;;;;;;;0.40;0.40;;;17.90;91.30;;;17.92;74.58;95831.44;5067804;28;20321;-78
2022/07/02 07:19:34;;;;;;;0.60;0.60;;;18.00;91.20;;;18.00;75.33;95830.38;5051134;28;20327;-78
2022/07/02 07:22:03;;;;;;;0.40;0.40;;;18.00;91.10;;;18.03;74.75;95844.03;5042917;28;20281;-79
2022/07/02 07:24:31;;;;;;;0.40;0.40;;;18.00;91.10;;;18.11;74.75;95834.19;5044669;28;20611;-78
2022/07/02 07:26:58;;;;;;;0.40;0.40;;;18.10;91.10;;;18.13;74.56;95824.97;5023364;28;20202;-78
2022/07/02 07:29:26;;;;;;;0.52;0.52;;;18.20;91.00;;;18.16;74.33;95821.06;5034466;28;20556;-78
2022/07/02 07:31:53;;;;;;;0.50;0.50;;;18.20;90.90;;;18.20;74.53;95824.91;5059829;28;21261;-78
2022/07/02 07:34:20;;;;;;;0.50;0.50;;;18.20;90.90;;;18.23;74.71;95822.63;5052109;28;20273;-79
2022/07/02 07:36:47;;;;;;;0.40;0.40;;;18.20;91.00;;;18.27;74.59;95830.16;5041986;28;20290;-78
2022/07/02 07:39:15;;;;;;;0.40;0.40;;;18.30;91.10;;;18.32;74.77;95825.00;5071720;28;20289;-79
2022/07/02 07:41:42;;;;;;;0.47;0.47;;;18.30;91.10;;;18.37;74.64;95822.50;5052385;28;20203;-79
2022/07/02 07:44:09;;;;;;;0.40;0.40;;;18.30;91.30;;;18.42;74.60;95829.81;5052339;28;20565;-78
2022/07/02 07:46:37;;;;;;;0.50;0.50;;;18.40;91.10;;;18.44;74.66;95815.28;5032878;28;20219;-79
2022/07/02 07:49:04;;;;;;;0.50;0.50;;;18.40;91.10;;;18.53;75.24;95819.31;5055632;28;20198;-79
2022/07/02 07:51:31;;;;;;;0.50;0.50;;;18.50;91.30;;;18.59;75.03;95824.75;5055129;28;20242;-79
2022/07/02 07:53:59;;;;;;;0.40;0.40;;;18.50;91.30;;;18.66;75.15;95829.00;5035515;28;20325;-79
2022/07/02 07:56:26;;;;;;;0.40;0.40;;;18.60;91.30;;;18.72;75.19;95825.47;5053390;28;20669;-79
2022/07/02 07:58:53;;;;;;;0.50;0.50;;;18.60;91.20;;;18.79;75.09;95821.91;5049999;28;20203;-79
2022/07/02 08:01:20;;;;;;;0.50;0.50;;;18.70;91.30;;;18.84;75.28;95814.88;5047699;28;20235;-78
2022/07/02 08:03:47;;;;;;;0.40;0.40;;;18.80;91.40;;;18.92;75.06;95818.31;5050409;28;20245;-79
2022/07/02 08:06:15;;;;;;;0.40;0.40;;;18.80;91.40;;;18.99;75.26;95822.53;5037713;28;20238;-78
2022/07/02 08:08:42;;;;;;;0.60;0.60;;;18.80;91.40;;;19.09;75.62;95824.66;5050732;28;20234;-78
2022/07/02 08:11:09;;;;;;;0.50;0.50;;;18.90;91.50;;;19.16;75.19;95827.25;5053575;28;20234;-79
2022/07/02 08:13:37;;;;;;;0.40;0.40;;;19.00;91.40;;;19.23;75.19;95827.16;5071701;28;20234;-79
2022/07/02 08:16:04;;;;;;;0.50;0.50;;;19.10;91.40;;;19.29;74.68;95828.94;5062156;28;20284;-79
2022/07/02 08:18:32;;;;;;;0.40;0.40;;;19.10;91.30;;;19.32;74.71;95817.81;5064487;28;20226;-77
2022/07/02 08:21:00;;;;;;;0.47;0.47;;;19.20;91.20;;;19.36;74.82;95832.31;5069266;28;20408;-79
2022/07/02 08:23:28;;;;;;;0.40;0.40;;;19.30;91.20;;;19.44;75.04;95836.50;5015779;28;20225;-78
2022/07/02 08:25:56;;;;;;;0.40;0.40;;;19.30;91.20;;;19.47;75.15;95834.22;5031006;28;20783;-79
2022/07/02 08:28:24;;;;;;;0.40;0.40;;;19.40;91.30;;;19.52;74.57;95831.69;5033174;28;20238;-79
2022/07/02 08:30:51;;;;;;;0.40;0.40;;;19.40;91.20;;;19.58;74.57;95835.28;5051549;28;20237;-78
2022/07/02 08:33:19;;;;;;;0.40;0.40;;;19.40;91.20;;;19.64;74.63;95823.75;5064885;28;20231;-79
2022/07/02 08:35:46;;;;;;;0.40;0.40;;;19.50;91.30;;;19.73;75.05;95832.22;5032600;28;20663;-79
2022/07/02 08:38:13;;;;;;;0.40;0.40;;;19.50;91.40;;;19.79;75.34;95823.31;5072319;28;20823;-79
2022/07/02 08:40:44;;;;;;;0.40;0.40;;;19.60;91.50;;;19.86;74.50;95828.59;5055825;28;20203;-80
2022/07/02 08:43:13;;;;;;;0.40;0.40;;;19.60;90.90;;;19.89;73.90;95816.66;5057879;28;20400;-79
2022/07/02 08:45:42;;;;;;;0.40;0.40;;;19.70;91.00;;;19.88;73.68;95818.50;5027357;28;20227;-79
2022/07/02 08:48:13;;;;;;;0.40;0.40;;;19.80;90.80;;;19.90;74.15;95815.63;5049274;28;22294;-79
2022/07/02 08:50:41;;;;;;;0.40;0.40;;;19.70;90.70;;;19.93;73.95;95821.31;5050705;28;20231;-80
2022/07/02 08:53:09;;;;;;;0.30;0.30;;;19.70;90.80;;;19.94;74.32;95816.78;5044264;28;20218;-80
2022/07/02 08:55:37;;;;;;;0.40;0.40;;;19.80;91.00;;;20.03;74.91;95822.59;5070313;28;20218;-78
2022/07/02 08:58:06;;;;;;;0.40;0.40;;;19.80;91.30;;;20.10;75.09;95802.81;5037076;28;20195;-80
2022/07/02 09:00:34;;;;;;;0.47;0.47;;;19.90;91.50;;;20.30;75.19;95809.66;5071242;28;20214;-79
2022/07/02 09:03:04;;;;;;;0.50;0.50;;;20.00;91.60;;;20.41;75.20;95811.50;5038629;28;20665;-80
2022/07/02 09:05:33;;;;;;;0.50;0.50;;;20.10;91.50;;;20.55;75.30;95814.75;5051534;28;20283;-79
2022/07/02 09:08:01;;;;;;;0.40;0.40;;;20.20;91.60;;;20.62;74.84;95804.78;5071067;28;20218;-80
2022/07/02 09:10:28;;;;;;;0.40;0.40;;;20.30;91.40;;;20.70;74.82;95808.97;5055366;28;20215;-80
2022/07/02 09:12:56;;;;;;;0.30;0.30;;;20.40;91.40;;;20.79;75.03;95799.56;5070472;28;20231;-80
2022/07/02 09:15:23;;;;;;;0.40;0.40;;;20.40;91.40;;;20.89;74.79;95801.63;5064482;28;20236;-79
2022/07/02 09:17:51;;;;;;;0.30;0.30;;;20.60;91.60;;;20.98;74.91;95794.06;5034939;28;20203;-80
2022/07/02 09:20:19;;;;;;;0.40;0.40;;;20.70;91.40;;;21.01;74.38;95790.16;5035119;28;20239;-79
2022/07/02 09:22:49;;;;;;;0.35;0.35;;;20.80;91.30;;;21.09;74.10;95797.75;5054958;28;20204;-80
2022/07/02 09:25:27;;;;;;;0.40;0.40;;;20.80;91.10;;;21.12;74.05;95794.63;5054395;28;20716;-79
2022/07/02 09:28:05;;;;;;;0.40;0.40;;;20.80;90.70;;;21.13;73.71;95800.75;5071049;28;20277;-79
2022/07/02 09:30:37;;;;;;;0.40;0.40;;;20.90;90.60;;;21.09;73.76;95785.25;5071400;28;20226;-80
2022/07/02 09:33:35;;;;;;;0.30;0.30;;;20.90;91.10;;;21.17;73.90;95786.72;5051190;28;20225;-79
2022/07/02 09:36:12;;;;;;;0.30;0.30;;;20.90;90.60;;;21.23;73.83;95784.97;5051280;28;20581;-80
2022/07/02 09:38:50;;;;;;;0.30;0.30;;;21.00;90.60;;;21.30;74.41;95793.66;5034726;28;20550;-81
2022/07/02 09:41:21;;;;;;;0.50;0.50;;;21.00;90.60;;;21.39;74.09;95789.53;5018292;28;20221;-80
2022/07/02 09:43:55;;;;;;;0.40;0.40;;;21.10;90.90;;;21.48;73.57;95795.28;5066688;28;20373;-80
2022/07/02 09:46:22;;;;;;;0.50;0.50;;;21.20;90.80;;;21.55;74.38;95787.16;5069234;28;20219;-80
2022/07/02 09:48:49;;;;;;;0.35;0.35;;;21.20;91.00;;;21.63;74.05;95783.31;5038036;28;20197;-80
2022/07/02 09:51:18;;;;;;;0.40;0.40;;;21.30;91.00;;;21.71;73.66;95789.06;5060509;28;20226;-80
2022/07/02 09:53:56;;;;;;;0.50;0.50;;;21.40;91.00;;;21.81;73.50;95784.94;5050676;28;20215;-80
2022/07/02 09:56:24;;;;;;;0.40;0.40;;;21.40;90.50;;;21.89;73.73;95777.34;5066209;28;20220;-80
2022/07/02 09:58:51;;;;;;;0.40;0.40;;;21.50;90.70;;;21.98;73.63;95796.44;5037964;28;20607;-80
2022/07/02 10:01:23;;;;;;;0.50;0.50;;;21.60;90.80;;;22.07;72.88;95792.31;5071718;28;20213;-80
2022/07/02 10:03:56;;;;;;;0.50;0.50;;;21.70;90.50;;;22.15;72.58;95787.63;5070948;28;20575;-80
2022/07/02 10:06:23;;;;;;;0.40;0.40;;;21.80;90.10;;;22.25;72.96;95782.44;5067575;28;20271;-79
2022/07/02 10:08:55;;;;;;;0.45;0.45;;;21.80;90.60;;;22.36;72.79;95786.91;5054975;28;20212;-80
2022/07/02 10:11:23;;;;;;;0.40;0.40;;;22.00;90.40;;;22.43;72.19;95783.28;5054262;28;20269;-80
2022/07/02 10:13:51;;;;;;;0.40;0.40;;;22.00;90.20;;;22.50;71.70;95781.22;5069987;28;20294;-80
2022/07/02 10:16:22;;;;;;;0.40;0.40;;;22.20;90.00;;;22.55;71.49;95774.06;5070579;28;20305;-79
2022/07/02 10:18:51;;;;;;;0.40;0.40;;;22.20;88.90;;;22.67;71.55;95765.16;5054460;28;20191;-80
2022/07/02 10:21:20;;;;;;;0.40;0.40;;;22.30;89.60;;;22.80;71.53;95764.78;5037339;28;20222;-81
2022/07/02 10:23:48;;;;;;;0.40;0.40;;;22.40;89.60;;;22.91;71.45;95759.56;5069037;28;20197;-79
2022/07/02 10:26:15;;;;;;;0.57;0.57;;;22.50;89.70;;;23.01;71.15;95757.00;5070635;28;20708;-80
2022/07/02 10:28:43;;;;;;;0.40;0.40;;;22.70;89.50;;;23.20;70.73;95760.19;5070176;28;20187;-80
2022/07/02 10:31:18;;;;;;;0.40;0.40;;;22.80;88.30;;;23.26;70.05;95759.19;5052106;28;20699;-80